sensor_id;sensor_type;location;lat;lon;timestamp;pressure;altitude;pressure_sealevel;temperature;humidity
49341;BME280;35209;51.050;13.678;2023-07-09T00:03:24;100370.75;;;19.43;64.32
49341;BME280;35209;51.050;13.678;2023-07-09T00:08:30;100373.72;;;19.53;64.11
49341;BME280;35209;51.050;13.678;2023-07-09T00:13:33;100376.41;;;19.94;62.28
49341;BME280;35209;51.050;13.678;2023-07-09T00:18:34;100382.41;;;19.71;62.77
49341;BME280;35209;51.050;13.678;2023-07-09T00:23:36;100383.03;;;19.74;62.77
49341;BME280;35209;51.050;13.678;2023-07-09T00:28:40;100380.88;;;19.52;63.25
49341;BME280;35209;51.050;13.678;2023-07-09T00:33:43;100380.19;;;19.49;62.68
49341;BME280;35209;51.050;13.678;2023-07-09T00:38:45;100373.28;;;19.18;64.68
49341;BME280;35209;51.050;13.678;2023-07-09T00:43:51;100366.22;;;19.31;63.94
49341;BME280;35209;51.050;13.678;2023-07-09T00:48:57;100367.34;;;18.98;66.34
49341;BME280;35209;51.050;13.678;2023-07-09T00:54:08;100369.25;;;18.96;65.62
49341;BME280;35209;51.050;13.678;2023-07-09T00:59:18;100353.47;;;19.22;64.64
49341;BME280;35209;51.050;13.678;2023-07-09T01:04:22;100354.69;;;18.73;67.45
49341;BME280;35209;51.050;13.678;2023-07-09T01:09:25;100361.16;;;18.53;67.04
49341;BME280;35209;51.050;13.678;2023-07-09T01:14:27;100360.59;;;18.78;67.11
49341;BME280;35209;51.050;13.678;2023-07-09T01:19:36;100366.63;;;18.36;66.20
49341;BME280;35209;51.050;13.678;2023-07-09T01:29:49;100353.00;;;18.56;64.36
49341;BME280;35209;51.050;13.678;2023-07-09T01:34:53;100361.72;;;18.44;64.33
49341;BME280;35209;51.050;13.678;2023-07-09T01:39:55;100358.78;;;18.63;62.06
49341;BME280;35209;51.050;13.678;2023-07-09T01:44:57;100363.22;;;18.34;65.17
49341;BME280;35209;51.050;13.678;2023-07-09T01:49:59;100353.00;;;18.56;63.87
49341;BME280;35209;51.050;13.678;2023-07-09T01:55:02;100361.84;;;18.27;66.06
49341;BME280;35209;51.050;13.678;2023-07-09T02:00:07;100366.72;;;17.88;66.60
49341;BME280;35209;51.050;13.678;2023-07-09T02:05:18;100365.19;;;17.84;66.17
49341;BME280;35209;51.050;13.678;2023-07-09T02:10:21;100350.31;;;17.96;64.98
49341;BME280;35209;51.050;13.678;2023-07-09T02:15:22;100352.41;;;18.21;63.17
49341;BME280;35209;51.050;13.678;2023-07-09T02:20:24;100351.69;;;18.03;65.52
49341;BME280;35209;51.050;13.678;2023-07-09T02:25:27;100357.75;;;18.05;64.62
49341;BME280;35209;51.050;13.678;2023-07-09T02:30:29;100358.13;;;17.99;65.78
49341;BME280;35209;51.050;13.678;2023-07-09T02:35:31;100358.59;;;18.06;64.10
49341;BME280;35209;51.050;13.678;2023-07-09T02:40:34;100358.47;;;17.93;65.35
49341;BME280;35209;51.050;13.678;2023-07-09T02:45:36;100358.00;;;17.69;66.74
49341;BME280;35209;51.050;13.678;2023-07-09T02:50:38;100365.66;;;17.59;66.85
49341;BME280;35209;51.050;13.678;2023-07-09T02:55:40;100361.72;;;17.67;65.88
49341;BME280;35209;51.050;13.678;2023-07-09T03:00:42;100362.00;;;17.78;64.86
49341;BME280;35209;51.050;13.678;2023-07-09T03:05:45;100362.38;;;17.70;65.15
49341;BME280;35209;51.050;13.678;2023-07-09T03:10:47;100371.50;;;17.82;65.38
49341;BME280;35209;51.050;13.678;2023-07-09T03:15:57;100376.16;;;17.78;64.37
49341;BME280;35209;51.050;13.678;2023-07-09T03:20:59;100377.19;;;17.76;65.61
49341;BME280;35209;51.050;13.678;2023-07-09T03:26:01;100381.94;;;17.53;66.58
49341;BME280;35209;51.050;13.678;2023-07-09T03:31:03;100389.56;;;17.59;66.62
49341;BME280;35209;51.050;13.678;2023-07-09T03:36:05;100387.03;;;17.74;67.37
49341;BME280;35209;51.050;13.678;2023-07-09T03:41:07;100392.03;;;17.80;65.43
49341;BME280;35209;51.050;13.678;2023-07-09T03:46:09;100384.91;;;17.80;63.86
49341;BME280;35209;51.050;13.678;2023-07-09T03:51:11;100392.34;;;17.74;64.51
49341;BME280;35209;51.050;13.678;2023-07-09T03:56:12;100392.63;;;17.85;62.38
49341;BME280;35209;51.050;13.678;2023-07-09T04:01:14;100396.13;;;17.85;63.65
49341;BME280;35209;51.050;13.678;2023-07-09T04:06:18;100395.94;;;17.73;64.51
49341;BME280;35209;51.050;13.678;2023-07-09T04:11:20;100380.03;;;17.88;64.08
49341;BME280;35209;51.050;13.678;2023-07-09T04:16:21;100391.31;;;18.08;61.44
49341;BME280;35209;51.050;13.678;2023-07-09T04:21:23;100393.88;;;18.25;60.95
49341;BME280;35209;51.050;13.678;2023-07-09T04:26:25;100399.47;;;18.21;63.17
49341;BME280;35209;51.050;13.678;2023-07-09T04:31:26;100397.84;;;18.48;61.24
49341;BME280;35209;51.050;13.678;2023-07-09T04:36:28;100403.09;;;18.80;59.44
49341;BME280;35209;51.050;13.678;2023-07-09T04:41:30;100408.78;;;18.74;60.13
49341;BME280;35209;51.050;13.678;2023-07-09T04:46:32;100397.28;;;18.73;61.12
49341;BME280;35209;51.050;13.678;2023-07-09T04:51:34;100409.22;;;18.96;60.30
49341;BME280;35209;51.050;13.678;2023-07-09T04:56:36;100419.72;;;19.28;59.17
49341;BME280;35209;51.050;13.678;2023-07-09T05:01:39;100423.50;;;18.95;60.80
49341;BME280;35209;51.050;13.678;2023-07-09T05:06:41;100422.00;;;19.20;60.71
49341;BME280;35209;51.050;13.678;2023-07-09T05:11:43;100421.91;;;19.64;57.91
49341;BME280;35209;51.050;13.678;2023-07-09T05:16:45;100417.69;;;19.74;58.75
49341;BME280;35209;51.050;13.678;2023-07-09T05:21:47;100418.56;;;19.89;57.00
49341;BME280;35209;51.050;13.678;2023-07-09T05:26:49;100430.59;;;20.36;54.97
49341;BME280;35209;51.050;13.678;2023-07-09T05:31:51;100433.38;;;20.61;53.02
49341;BME280;35209;51.050;13.678;2023-07-09T05:36:53;100431.78;;;21.37;52.19
49341;BME280;35209;51.050;13.678;2023-07-09T05:41:57;100432.56;;;21.88;50.38
49341;BME280;35209;51.050;13.678;2023-07-09T05:46:59;100421.69;;;22.15;49.33
49341;BME280;35209;51.050;13.678;2023-07-09T05:52:01;100431.53;;;22.39;48.15
49341;BME280;35209;51.050;13.678;2023-07-09T05:57:03;100433.91;;;23.25;47.25
49341;BME280;35209;51.050;13.678;2023-07-09T06:02:10;100437.06;;;23.41;44.78
49341;BME280;35209;51.050;13.678;2023-07-09T06:07:13;100428.91;;;23.77;44.54
49341;BME280;35209;51.050;13.678;2023-07-09T06:12:15;100427.38;;;24.17;43.39
49341;BME280;35209;51.050;13.678;2023-07-09T06:17:17;100430.34;;;24.47;43.40
49341;BME280;35209;51.050;13.678;2023-07-09T06:22:19;100435.81;;;24.56;43.56
49341;BME280;35209;51.050;13.678;2023-07-09T06:27:21;100431.44;;;25.39;41.28
49341;BME280;35209;51.050;13.678;2023-07-09T06:32:22;100434.78;;;25.92;41.25
49341;BME280;35209;51.050;13.678;2023-07-09T06:37:25;100438.09;;;26.06;40.78
49341;BME280;35209;51.050;13.678;2023-07-09T06:42:26;100443.81;;;26.22;40.76
49341;BME280;35209;51.050;13.678;2023-07-09T06:47:48;100449.63;;;26.95;39.57
49341;BME280;35209;51.050;13.678;2023-07-09T06:52:51;100449.38;;;26.88;38.24
49341;BME280;35209;51.050;13.678;2023-07-09T06:57:53;100446.53;;;26.80;37.31
49341;BME280;35209;51.050;13.678;2023-07-09T07:02:55;100454.91;;;27.06;37.09
49341;BME280;35209;51.050;13.678;2023-07-09T07:07:57;100451.47;;;27.24;38.29
49341;BME280;35209;51.050;13.678;2023-07-09T07:12:59;100449.22;;;27.56;38.27
49341;BME280;35209;51.050;13.678;2023-07-09T07:18:01;100449.22;;;27.56;39.08
49341;BME280;35209;51.050;13.678;2023-07-09T07:23:03;100454.25;;;28.34;35.68
49341;BME280;35209;51.050;13.678;2023-07-09T07:28:05;100451.88;;;28.49;35.60
49341;BME280;35209;51.050;13.678;2023-07-09T07:33:07;100443.13;;;28.73;36.09
49341;BME280;35209;51.050;13.678;2023-07-09T07:38:09;100448.16;;;28.85;36.10
49341;BME280;35209;51.050;13.678;2023-07-09T07:43:11;100452.72;;;29.29;34.20
49341;BME280;35209;51.050;13.678;2023-07-09T07:48:13;100452.09;;;29.09;35.12
49341;BME280;35209;51.050;13.678;2023-07-09T07:53:15;100447.31;;;28.85;34.78
49341;BME280;35209;51.050;13.678;2023-07-09T07:58:17;100445.16;;;28.71;34.77
49341;BME280;35209;51.050;13.678;2023-07-09T08:03:19;100452.78;;;29.11;34.63
49341;BME280;35209;51.050;13.678;2023-07-09T08:08:20;100455.69;;;29.44;33.80
49341;BME280;35209;51.050;13.678;2023-07-09T08:13:22;100449.97;;;29.73;35.00
49341;BME280;35209;51.050;13.678;2023-07-09T08:18:25;100449.59;;;29.68;33.51
49341;BME280;35209;51.050;13.678;2023-07-09T08:23:27;100451.22;;;29.95;33.79
49341;BME280;35209;51.050;13.678;2023-07-09T08:28:30;100446.84;;;30.60;32.31
49341;BME280;35209;51.050;13.678;2023-07-09T08:33:32;100433.78;;;30.88;29.70
49341;BME280;35209;51.050;13.678;2023-07-09T08:38:34;100437.31;;;31.38;31.76
49341;BME280;35209;51.050;13.678;2023-07-09T08:48:51;100424.22;;;31.42;31.44
49341;BME280;35209;51.050;13.678;2023-07-09T08:53:58;100434.69;;;31.61;32.54
49341;BME280;35209;51.050;13.678;2023-07-09T08:59:02;100435.91;;;32.60;30.48
49341;BME280;35209;51.050;13.678;2023-07-09T09:04:27;100422.75;;;32.86;29.44
49341;BME280;35209;51.050;13.678;2023-07-09T09:09:43;100433.41;;;33.11;26.99
49341;BME280;35209;51.050;13.678;2023-07-09T09:15:16;100436.66;;;33.29;29.25
49341;BME280;35209;51.050;13.678;2023-07-09T09:20:22;100429.34;;;33.45;29.03
49341;BME280;35209;51.050;13.678;2023-07-09T09:25:27;100424.41;;;34.14;29.05
49341;BME280;35209;51.050;13.678;2023-07-09T09:30:30;100425.25;;;34.36;26.93
49341;BME280;35209;51.050;13.678;2023-07-09T09:35:38;100423.91;;;34.89;24.41
49341;BME280;35209;51.050;13.678;2023-07-09T09:40:40;100425.72;;;34.61;26.18
49341;BME280;35209;51.050;13.678;2023-07-09T09:45:44;100424.13;;;34.95;24.77
49341;BME280;35209;51.050;13.678;2023-07-09T09:50:47;100423.25;;;35.78;23.76
49341;BME280;35209;51.050;13.678;2023-07-09T09:55:51;100419.06;;;35.82;23.89
49341;BME280;35209;51.050;13.678;2023-07-09T10:00:56;100415.72;;;35.18;23.15
49341;BME280;35209;51.050;13.678;2023-07-09T10:06:01;100415.00;;;35.72;23.90
49341;BME280;35209;51.050;13.678;2023-07-09T10:12:18;100408.63;;;36.12;22.38
49341;BME280;35209;51.050;13.678;2023-07-09T10:16:59;100409.19;;;35.95;22.32
49341;BME280;35209;51.050;13.678;2023-07-09T10:22:15;100400.81;;;36.03;21.95
49341;BME280;35209;51.050;13.678;2023-07-09T10:27:28;100403.66;;;35.75;21.66
49341;BME280;35209;51.050;13.678;2023-07-09T10:32:57;100414.47;;;35.55;22.30
49341;BME280;35209;51.050;13.678;2023-07-09T10:38:08;100403.69;;;36.69;19.81
49341;BME280;35209;51.050;13.678;2023-07-09T10:43:28;100395.25;;;36.91;23.11
49341;BME280;35209;51.050;13.678;2023-07-09T10:48:40;100394.44;;;36.44;20.86
49341;BME280;35209;51.050;13.678;2023-07-09T10:53:48;100394.63;;;36.55;22.91
49341;BME280;35209;51.050;13.678;2023-07-09T11:04:06;100399.44;;;37.33;22.17
49341;BME280;35209;51.050;13.678;2023-07-09T11:09:22;100400.47;;;37.32;20.78
49341;BME280;35209;51.050;13.678;2023-07-09T11:14:42;100392.91;;;37.27;21.73
49341;BME280;35209;51.050;13.678;2023-07-09T11:19:53;100382.78;;;37.34;20.50
49341;BME280;35209;51.050;13.678;2023-07-09T11:25:10;100386.84;;;36.92;21.16
49341;BME280;35209;51.050;13.678;2023-07-09T11:30:27;100380.84;;;37.48;21.08
49341;BME280;35209;51.050;13.678;2023-07-09T11:35:46;100387.69;;;36.99;21.16
49341;BME280;35209;51.050;13.678;2023-07-09T11:40:50;100386.56;;;37.33;20.26
49341;BME280;35209;51.050;13.678;2023-07-09T11:45:52;100371.44;;;37.04;20.63
49341;BME280;35209;51.050;13.678;2023-07-09T11:50:57;100359.50;;;37.64;21.81
49341;BME280;35209;51.050;13.678;2023-07-09T11:56:01;100353.75;;;38.17;21.11
49341;BME280;35209;51.050;13.678;2023-07-09T12:01:09;100363.50;;;37.61;20.60
49341;BME280;35209;51.050;13.678;2023-07-09T12:06:21;100355.59;;;37.91;20.13
49341;BME280;35209;51.050;13.678;2023-07-09T12:11:29;100353.53;;;37.08;19.72
49341;BME280;35209;51.050;13.678;2023-07-09T12:16:46;100341.94;;;36.86;20.84
49341;BME280;35209;51.050;13.678;2023-07-09T12:21:52;100339.66;;;36.77;20.00
49341;BME280;35209;51.050;13.678;2023-07-09T12:26:59;100345.56;;;36.67;23.49
49341;BME280;35209;51.050;13.678;2023-07-09T12:32:16;100326.97;;;36.43;20.07
49341;BME280;35209;51.050;13.678;2023-07-09T12:37:19;100332.84;;;37.19;19.51
49341;BME280;35209;51.050;13.678;2023-07-09T12:42:30;100325.44;;;37.78;19.11
49341;BME280;35209;51.050;13.678;2023-07-09T12:47:33;100319.38;;;37.69;19.10
49341;BME280;35209;51.050;13.678;2023-07-09T12:52:45;100313.91;;;37.11;19.87
49341;BME280;35209;51.050;13.678;2023-07-09T12:57:48;100312.25;;;36.70;20.42
49341;BME280;35209;51.050;13.678;2023-07-09T13:02:54;100297.09;;;36.94;20.92
49341;BME280;35209;51.050;13.678;2023-07-09T13:08:01;100295.22;;;37.84;21.02
49341;BME280;35209;51.050;13.678;2023-07-09T13:13:04;100295.84;;;37.55;18.97
49341;BME280;35209;51.050;13.678;2023-07-09T13:18:09;100295.38;;;36.86;20.03
49341;BME280;35209;51.050;13.678;2023-07-09T13:23:22;100291.38;;;36.82;18.98
49341;BME280;35209;51.050;13.678;2023-07-09T13:28:28;100291.59;;;36.21;19.77
49341;BME280;35209;51.050;13.678;2023-07-09T13:33:30;100299.84;;;36.41;18.74
49341;BME280;35209;51.050;13.678;2023-07-09T13:38:32;100293.94;;;36.24;21.04
49341;BME280;35209;51.050;13.678;2023-07-09T13:43:35;100293.88;;;35.91;20.94
49341;BME280;35209;51.050;13.678;2023-07-09T13:48:39;100290.38;;;36.17;19.04
49341;BME280;35209;51.050;13.678;2023-07-09T13:53:42;100285.69;;;35.98;19.87
49341;BME280;35209;51.050;13.678;2023-07-09T13:58:44;100278.97;;;36.00;20.43
49341;BME280;35209;51.050;13.678;2023-07-09T14:03:46;100281.81;;;35.66;21.85
49341;BME280;35209;51.050;13.678;2023-07-09T14:08:47;100280.22;;;35.30;21.11
49341;BME280;35209;51.050;13.678;2023-07-09T14:13:50;100280.31;;;35.08;22.18
49341;BME280;35209;51.050;13.678;2023-07-09T14:18:51;100277.38;;;35.10;21.69
49341;BME280;35209;51.050;13.678;2023-07-09T14:23:54;100283.88;;;35.50;21.30
49341;BME280;35209;51.050;13.678;2023-07-09T14:28:56;100277.09;;;35.39;21.20
49341;BME280;35209;51.050;13.678;2023-07-09T14:34:18;100273.91;;;35.36;22.24
49341;BME280;35209;51.050;13.678;2023-07-09T14:39:22;100273.28;;;35.41;20.90
49341;BME280;35209;51.050;13.678;2023-07-09T14:44:29;100266.09;;;34.85;23.07
49341;BME280;35209;51.050;13.678;2023-07-09T14:49:31;100268.13;;;34.76;22.11
49341;BME280;35209;51.050;13.678;2023-07-09T14:54:33;100265.41;;;34.76;21.90
49341;BME280;35209;51.050;13.678;2023-07-09T14:59:35;100255.84;;;34.59;22.61
49341;BME280;35209;51.050;13.678;2023-07-09T15:04:40;100261.25;;;34.87;22.58
49341;BME280;35209;51.050;13.678;2023-07-09T15:09:43;100256.28;;;34.97;22.20
49341;BME280;35209;51.050;13.678;2023-07-09T15:14:46;100248.84;;;34.50;22.15
49341;BME280;35209;51.050;13.678;2023-07-09T15:19:48;100240.63;;;35.19;22.05
49341;BME280;35209;51.050;13.678;2023-07-09T15:24:50;100231.09;;;35.02;21.66
49341;BME280;35209;51.050;13.678;2023-07-09T15:29:51;100219.28;;;35.43;22.33
49341;BME280;35209;51.050;13.678;2023-07-09T15:34:53;100216.19;;;35.72;22.67
49341;BME280;35209;51.050;13.678;2023-07-09T15:39:55;100211.56;;;35.66;22.29
49341;BME280;35209;51.050;13.678;2023-07-09T15:44:57;100215.19;;;36.20;20.28
49341;BME280;35209;51.050;13.678;2023-07-09T15:50:00;100203.94;;;36.74;19.61
49341;BME280;35209;51.050;13.678;2023-07-09T15:55:02;100195.06;;;35.33;22.61
49341;BME280;35209;51.050;13.678;2023-07-09T16:00:15;100180.16;;;35.29;22.28
49341;BME280;35209;51.050;13.678;2023-07-09T16:05:35;100177.00;;;34.84;22.24
49341;BME280;35209;51.050;13.678;2023-07-09T16:10:39;100178.75;;;35.73;21.10
49341;BME280;35209;51.050;13.678;2023-07-09T16:15:40;100174.88;;;35.21;21.49
49341;BME280;35209;51.050;13.678;2023-07-09T16:20:42;100164.38;;;34.83;22.29
49341;BME280;35209;51.050;13.678;2023-07-09T16:25:46;100170.59;;;34.35;22.97
49341;BME280;35209;51.050;13.678;2023-07-09T16:30:48;100164.13;;;34.36;22.55
49341;BME280;35209;51.050;13.678;2023-07-09T16:35:53;100163.66;;;34.61;24.00
49341;BME280;35209;51.050;13.678;2023-07-09T16:40:55;100167.09;;;34.42;22.53
49341;BME280;35209;51.050;13.678;2023-07-09T16:45:58;100155.84;;;34.23;21.61
49341;BME280;35209;51.050;13.678;2023-07-09T16:51:00;100150.31;;;33.88;22.80
49341;BME280;35209;51.050;13.678;2023-07-09T16:56:02;100147.38;;;33.62;23.85
49341;BME280;35209;51.050;13.678;2023-07-09T17:01:05;100142.00;;;33.47;24.41
49341;BME280;35209;51.050;13.678;2023-07-09T17:06:08;100137.25;;;33.20;23.79
49341;BME280;35209;51.050;13.678;2023-07-09T17:11:11;100143.75;;;33.19;23.64
49341;BME280;35209;51.050;13.678;2023-07-09T17:16:13;100146.91;;;33.01;23.99
49341;BME280;35209;51.050;13.678;2023-07-09T17:21:15;100147.84;;;32.78;23.75
49341;BME280;35209;51.050;13.678;2023-07-09T17:26:17;100138.41;;;32.59;24.70
49341;BME280;35209;51.050;13.678;2023-07-09T17:31:22;100148.06;;;32.47;24.92
49341;BME280;35209;51.050;13.678;2023-07-09T17:36:24;100157.34;;;32.53;26.19
49341;BME280;35209;51.050;13.678;2023-07-09T17:41:26;100148.16;;;32.39;25.57
49341;BME280;35209;51.050;13.678;2023-07-09T17:46:28;100151.78;;;32.02;28.99
49341;BME280;35209;51.050;13.678;2023-07-09T17:51:31;100161.34;;;31.75;30.97
49341;BME280;35209;51.050;13.678;2023-07-09T17:56:39;100164.91;;;31.52;31.97
49341;BME280;35209;51.050;13.678;2023-07-09T18:01:41;100163.19;;;31.28;33.01
49341;BME280;35209;51.050;13.678;2023-07-09T18:06:49;100163.50;;;31.02;33.87
49341;BME280;35209;51.050;13.678;2023-07-09T18:11:53;100176.13;;;30.87;35.17
49341;BME280;35209;51.050;13.678;2023-07-09T18:16:55;100176.16;;;30.71;35.93
49341;BME280;35209;51.050;13.678;2023-07-09T18:21:59;100177.78;;;30.32;36.36
49341;BME280;35209;51.050;13.678;2023-07-09T18:27:02;100185.28;;;30.22;34.16
49341;BME280;35209;51.050;13.678;2023-07-09T18:32:04;100187.16;;;29.97;36.56
49341;BME280;35209;51.050;13.678;2023-07-09T18:37:06;100193.41;;;29.65;37.47
49341;BME280;35209;51.050;13.678;2023-07-09T18:42:13;100188.25;;;29.37;38.08
49341;BME280;35209;51.050;13.678;2023-07-09T18:47:18;100173.97;;;29.03;39.57
49341;BME280;35209;51.050;13.678;2023-07-09T18:52:21;100176.16;;;28.65;39.21
49341;BME280;35209;51.050;13.678;2023-07-09T18:57:24;100185.91;;;28.58;37.99
49341;BME280;35209;51.050;13.678;2023-07-09T19:02:26;100177.34;;;28.36;38.33
49341;BME280;35209;51.050;13.678;2023-07-09T19:07:28;100181.19;;;28.08;38.42
49341;BME280;35209;51.050;13.678;2023-07-09T19:12:29;100181.84;;;27.48;39.85
49341;BME280;35209;51.050;13.678;2023-07-09T19:17:32;100181.06;;;27.20;41.50
49341;BME280;35209;51.050;13.678;2023-07-09T19:22:34;100182.97;;;27.10;40.76
49341;BME280;35209;51.050;13.678;2023-07-09T19:27:36;100177.91;;;26.97;41.00
49341;BME280;35209;51.050;13.678;2023-07-09T19:32:40;100177.44;;;27.02;41.18
49341;BME280;35209;51.050;13.678;2023-07-09T19:37:44;100185.16;;;26.87;41.66
49341;BME280;35209;51.050;13.678;2023-07-09T19:42:47;100181.22;;;26.54;42.31
49341;BME280;35209;51.050;13.678;2023-07-09T19:47:51;100179.25;;;26.36;43.50
49341;BME280;35209;51.050;13.678;2023-07-09T19:52:59;100182.59;;;26.11;43.84
49341;BME280;35209;51.050;13.678;2023-07-09T19:58:01;100186.13;;;26.11;44.54
49341;BME280;35209;51.050;13.678;2023-07-09T20:03:08;100188.25;;;26.17;44.09
49341;BME280;35209;51.050;13.678;2023-07-09T20:08:14;100189.28;;;25.97;43.77
49341;BME280;35209;51.050;13.678;2023-07-09T20:13:22;100193.25;;;25.83;44.42
49341;BME280;35209;51.050;13.678;2023-07-09T20:18:25;100193.63;;;25.40;44.97
49341;BME280;35209;51.050;13.678;2023-07-09T20:23:28;100194.63;;;25.39;45.82
49341;BME280;35209;51.050;13.678;2023-07-09T20:28:30;100193.63;;;25.40;46.37
49341;BME280;35209;51.050;13.678;2023-07-09T20:33:32;100191.03;;;25.09;47.22
49341;BME280;35209;51.050;13.678;2023-07-09T20:38:37;100194.91;;;25.36;46.29
49341;BME280;35209;51.050;13.678;2023-07-09T20:43:39;100206.06;;;25.12;45.60
49341;BME280;35209;51.050;13.678;2023-07-09T20:48:42;100193.03;;;24.77;46.52
49341;BME280;35209;51.050;13.678;2023-07-09T20:53:44;100199.69;;;24.82;46.70
49341;BME280;35209;51.050;13.678;2023-07-09T20:58:46;100204.69;;;24.56;48.43
49341;BME280;35209;51.050;13.678;2023-07-09T21:03:49;100204.53;;;24.48;47.92
49341;BME280;35209;51.050;13.678;2023-07-09T21:08:50;100207.28;;;24.67;47.92
49341;BME280;35209;51.050;13.678;2023-07-09T21:13:52;100211.84;;;24.46;48.80
49341;BME280;35209;51.050;13.678;2023-07-09T21:18:54;100216.09;;;24.28;49.53
49341;BME280;35209;51.050;13.678;2023-07-09T21:23:56;100215.78;;;24.00;50.20
49341;BME280;35209;51.050;13.678;2023-07-09T21:28:58;100219.53;;;24.09;50.75
49341;BME280;35209;51.050;13.678;2023-07-09T21:34:00;100219.00;;;24.15;49.95
49341;BME280;35209;51.050;13.678;2023-07-09T21:39:01;100230.13;;;24.10;49.91
49341;BME280;35209;51.050;13.678;2023-07-09T21:44:04;100232.47;;;23.83;50.52
49341;BME280;35209;51.050;13.678;2023-07-09T21:49:12;100229.00;;;23.60;52.37
49341;BME280;35209;51.050;13.678;2023-07-09T21:59:35;100228.50;;;23.55;53.72
49341;BME280;35209;51.050;13.678;2023-07-09T22:04:37;100231.69;;;23.60;52.36
49341;BME280;35209;51.050;13.678;2023-07-09T22:09:39;100227.00;;;23.30;53.64
49341;BME280;35209;51.050;13.678;2023-07-09T22:14:40;100220.91;;;23.28;53.73
49341;BME280;35209;51.050;13.678;2023-07-09T22:19:43;100228.38;;;23.56;53.33
49341;BME280;35209;51.050;13.678;2023-07-09T22:24:47;100219.94;;;23.17;53.55
49341;BME280;35209;51.050;13.678;2023-07-09T22:29:48;100218.25;;;23.05;54.42
49341;BME280;35209;51.050;13.678;2023-07-09T22:34:51;100204.38;;;23.00;54.99
49341;BME280;35209;51.050;13.678;2023-07-09T22:39:53;100202.44;;;22.91;55.20
49341;BME280;35209;51.050;13.678;2023-07-09T22:44:55;100212.28;;;23.02;55.35
49341;BME280;35209;51.050;13.678;2023-07-09T22:49:57;100198.88;;;22.79;55.60
49341;BME280;35209;51.050;13.678;2023-07-09T22:55:13;100208.66;;;22.80;56.01
49341;BME280;35209;51.050;13.678;2023-07-09T23:00:27;100201.22;;;22.50;57.44
49341;BME280;35209;51.050;13.678;2023-07-09T23:05:29;100194.25;;;22.48;56.79
49341;BME280;35209;51.050;13.678;2023-07-09T23:10:31;100200.59;;;22.80;56.19
49341;BME280;35209;51.050;13.678;2023-07-09T23:15:34;100189.50;;;22.40;57.64
49341;BME280;35209;51.050;13.678;2023-07-09T23:20:36;100192.44;;;22.37;57.80
49341;BME280;35209;51.050;13.678;2023-07-09T23:25:39;100190.09;;;22.44;56.99
49341;BME280;35209;51.050;13.678;2023-07-09T23:30:42;100184.66;;;22.45;58.02
49341;BME280;35209;51.050;13.678;2023-07-09T23:35:44;100174.16;;;22.20;57.94
49341;BME280;35209;51.050;13.678;2023-07-09T23:40:46;100173.50;;;22.05;58.19
49341;BME280;35209;51.050;13.678;2023-07-09T23:45:48;100165.19;;;22.08;58.06
49341;BME280;35209;51.050;13.678;2023-07-09T23:50:52;100168.25;;;21.68;57.13
49341;BME280;35209;51.050;13.678;2023-07-09T23:55:57;100166.78;;;21.64;58.39
